sensor_id;sensor_type;location;lat;lon;timestamp;temperature;humidity
18777;DHT22;9517;51.174;4.160;2023-04-21T00:01:55;7.50;99.90
18777;DHT22;9517;51.174;4.160;2023-04-21T00:04:23;7.50;99.90
18777;DHT22;9517;51.174;4.160;2023-04-21T00:06:50;7.40;99.90
18777;DHT22;9517;51.174;4.160;2023-04-21T00:09:19;7.50;99.90
18777;DHT22;9517;51.174;4.160;2023-04-21T00:11:47;7.50;99.90
18777;DHT22;9517;51.174;4.160;2023-04-21T00:14:14;7.50;99.90
18777;DHT22;9517;51.174;4.160;2023-04-21T00:16:41;7.40;99.90
18777;DHT22;9517;51.174;4.160;2023-04-21T00:19:08;7.50;99.90
18777;DHT22;9517;51.174;4.160;2023-04-21T00:21:38;7.60;99.90
18777;DHT22;9517;51.174;4.160;2023-04-21T00:24:06;7.60;99.90
18777;DHT22;9517;51.174;4.160;2023-04-21T00:26:34;7.60;99.90
18777;DHT22;9517;51.174;4.160;2023-04-21T00:29:02;7.70;99.90
18777;DHT22;9517;51.174;4.160;2023-04-21T00:31:29;7.60;99.90
18777;DHT22;9517;51.174;4.160;2023-04-21T00:33:56;7.70;99.90
18777;DHT22;9517;51.174;4.160;2023-04-21T00:36:23;7.60;99.90
18777;DHT22;9517;51.174;4.160;2023-04-21T00:38:53;7.60;99.90
18777;DHT22;9517;51.174;4.160;2023-04-21T00:41:20;7.60;99.90
18777;DHT22;9517;51.174;4.160;2023-04-21T00:44:02;7.50;99.90
18777;DHT22;9517;51.174;4.160;2023-04-21T00:46:30;7.60;99.90
18777;DHT22;9517;51.174;4.160;2023-04-21T00:48:57;7.70;99.90
18777;DHT22;9517;51.174;4.160;2023-04-21T00:51:26;7.80;99.90
18777;DHT22;9517;51.174;4.160;2023-04-21T00:53:54;7.80;99.90
18777;DHT22;9517;51.174;4.160;2023-04-21T00:56:22;8.00;99.90
18777;DHT22;9517;51.174;4.160;2023-04-21T00:58:49;7.90;99.90
18777;DHT22;9517;51.174;4.160;2023-04-21T01:01:18;8.00;99.90
18777;DHT22;9517;51.174;4.160;2023-04-21T01:03:45;8.10;99.90
18777;DHT22;9517;51.174;4.160;2023-04-21T01:06:12;8.20;99.90
18777;DHT22;9517;51.174;4.160;2023-04-21T01:08:39;8.30;99.90
18777;DHT22;9517;51.174;4.160;2023-04-21T01:11:12;8.50;99.90
18777;DHT22;9517;51.174;4.160;2023-04-21T01:13:39;8.60;99.90
18777;DHT22;9517;51.174;4.160;2023-04-21T01:16:07;8.50;99.90
18777;DHT22;9517;51.174;4.160;2023-04-21T01:18:35;8.60;99.90
18777;DHT22;9517;51.174;4.160;2023-04-21T01:21:04;8.70;99.90
18777;DHT22;9517;51.174;4.160;2023-04-21T01:23:33;8.70;99.90
18777;DHT22;9517;51.174;4.160;2023-04-21T01:26:00;8.90;99.90
18777;DHT22;9517;51.174;4.160;2023-04-21T01:28:27;8.80;99.90
18777;DHT22;9517;51.174;4.160;2023-04-21T01:30:55;8.80;99.90
18777;DHT22;9517;51.174;4.160;2023-04-21T01:33:22;8.80;99.90
18777;DHT22;9517;51.174;4.160;2023-04-21T01:35:50;8.90;99.90
18777;DHT22;9517;51.174;4.160;2023-04-21T01:38:17;8.80;99.90
18777;DHT22;9517;51.174;4.160;2023-04-21T01:40:48;8.80;99.90
18777;DHT22;9517;51.174;4.160;2023-04-21T01:43:17;8.70;99.90
18777;DHT22;9517;51.174;4.160;2023-04-21T01:45:44;8.70;99.90
18777;DHT22;9517;51.174;4.160;2023-04-21T01:48:12;8.70;99.90
18777;DHT22;9517;51.174;4.160;2023-04-21T01:50:40;8.80;99.90
18777;DHT22;9517;51.174;4.160;2023-04-21T01:53:07;8.80;99.90
18777;DHT22;9517;51.174;4.160;2023-04-21T01:55:34;8.70;99.90
18777;DHT22;9517;51.174;4.160;2023-04-21T01:58:03;8.80;99.90
18777;DHT22;9517;51.174;4.160;2023-04-21T02:00:30;8.80;99.90
18777;DHT22;9517;51.174;4.160;2023-04-21T02:02:57;8.70;99.90
18777;DHT22;9517;51.174;4.160;2023-04-21T02:05:24;8.70;99.90
18777;DHT22;9517;51.174;4.160;2023-04-21T02:07:51;8.70;99.90
18777;DHT22;9517;51.174;4.160;2023-04-21T02:10:18;8.70;99.90
18777;DHT22;9517;51.174;4.160;2023-04-21T02:12:45;8.70;99.90
18777;DHT22;9517;51.174;4.160;2023-04-21T02:15:14;8.60;99.90
18777;DHT22;9517;51.174;4.160;2023-04-21T02:17:41;8.60;99.90
18777;DHT22;9517;51.174;4.160;2023-04-21T02:20:10;8.60;99.90
18777;DHT22;9517;51.174;4.160;2023-04-21T02:22:38;8.50;99.90
18777;DHT22;9517;51.174;4.160;2023-04-21T02:25:05;8.50;99.90
18777;DHT22;9517;51.174;4.160;2023-04-21T02:27:32;8.50;99.90
18777;DHT22;9517;51.174;4.160;2023-04-21T02:29:59;8.50;99.90
18777;DHT22;9517;51.174;4.160;2023-04-21T02:32:28;8.50;99.90
18777;DHT22;9517;51.174;4.160;2023-04-21T02:34:55;8.50;99.90
18777;DHT22;9517;51.174;4.160;2023-04-21T02:37:23;8.60;99.90
18777;DHT22;9517;51.174;4.160;2023-04-21T02:39:51;8.80;99.90
18777;DHT22;9517;51.174;4.160;2023-04-21T02:42:18;8.70;99.90
18777;DHT22;9517;51.174;4.160;2023-04-21T02:44:45;8.70;99.90
18777;DHT22;9517;51.174;4.160;2023-04-21T02:47:14;8.80;99.90
18777;DHT22;9517;51.174;4.160;2023-04-21T02:49:43;8.60;99.90
18777;DHT22;9517;51.174;4.160;2023-04-21T02:52:10;8.50;99.90
18777;DHT22;9517;51.174;4.160;2023-04-21T02:54:38;8.60;99.90
18777;DHT22;9517;51.174;4.160;2023-04-21T02:57:05;8.50;99.90
18777;DHT22;9517;51.174;4.160;2023-04-21T02:59:32;8.40;99.90
18777;DHT22;9517;51.174;4.160;2023-04-21T03:01:59;8.40;99.90
18777;DHT22;9517;51.174;4.160;2023-04-21T03:04:26;8.30;99.90
18777;DHT22;9517;51.174;4.160;2023-04-21T03:06:56;8.50;99.90
18777;DHT22;9517;51.174;4.160;2023-04-21T03:09:23;8.60;99.90
18777;DHT22;9517;51.174;4.160;2023-04-21T03:11:50;8.70;99.90
18777;DHT22;9517;51.174;4.160;2023-04-21T03:14:17;8.60;99.90
18777;DHT22;9517;51.174;4.160;2023-04-21T03:16:44;8.40;99.90
18777;DHT22;9517;51.174;4.160;2023-04-21T03:19:11;8.40;99.90
18777;DHT22;9517;51.174;4.160;2023-04-21T03:21:38;8.30;99.90
18777;DHT22;9517;51.174;4.160;2023-04-21T03:24:07;8.30;99.90
18777;DHT22;9517;51.174;4.160;2023-04-21T03:26:34;8.30;99.90
18777;DHT22;9517;51.174;4.160;2023-04-21T03:29:01;8.20;99.90
18777;DHT22;9517;51.174;4.160;2023-04-21T03:31:28;8.30;99.90
18777;DHT22;9517;51.174;4.160;2023-04-21T03:33:56;8.30;99.90
18777;DHT22;9517;51.174;4.160;2023-04-21T03:36:23;8.40;99.90
18777;DHT22;9517;51.174;4.160;2023-04-21T03:38:50;8.40;99.90
18777;DHT22;9517;51.174;4.160;2023-04-21T03:41:18;8.60;99.90
18777;DHT22;9517;51.174;4.160;2023-04-21T03:43:45;8.50;99.90
18777;DHT22;9517;51.174;4.160;2023-04-21T03:46:19;8.50;99.90
18777;DHT22;9517;51.174;4.160;2023-04-21T03:48:46;8.60;99.90
18777;DHT22;9517;51.174;4.160;2023-04-21T03:51:14;8.70;99.90
18777;DHT22;9517;51.174;4.160;2023-04-21T03:53:41;8.70;99.90
18777;DHT22;9517;51.174;4.160;2023-04-21T03:56:08;8.60;99.90
18777;DHT22;9517;51.174;4.160;2023-04-21T03:58:37;8.50;99.90
18777;DHT22;9517;51.174;4.160;2023-04-21T04:01:04;8.60;99.90
18777;DHT22;9517;51.174;4.160;2023-04-21T04:03:32;8.70;99.90
18777;DHT22;9517;51.174;4.160;2023-04-21T04:06:00;8.80;99.90
18777;DHT22;9517;51.174;4.160;2023-04-21T04:08:28;8.90;99.90
18777;DHT22;9517;51.174;4.160;2023-04-21T04:10:55;8.90;99.90
18777;DHT22;9517;51.174;4.160;2023-04-21T04:13:23;8.80;99.90
18777;DHT22;9517;51.174;4.160;2023-04-21T04:15:52;8.80;99.90
18777;DHT22;9517;51.174;4.160;2023-04-21T04:18:20;8.80;99.90
18777;DHT22;9517;51.174;4.160;2023-04-21T04:20:47;8.70;99.90
18777;DHT22;9517;51.174;4.160;2023-04-21T04:23:14;8.70;99.90
18777;DHT22;9517;51.174;4.160;2023-04-21T04:25:41;8.80;99.90
18777;DHT22;9517;51.174;4.160;2023-04-21T04:28:09;8.70;99.90
18777;DHT22;9517;51.174;4.160;2023-04-21T04:30:37;8.60;99.90
18777;DHT22;9517;51.174;4.160;2023-04-21T04:33:05;8.60;99.90
18777;DHT22;9517;51.174;4.160;2023-04-21T04:35:34;8.70;99.90
18777;DHT22;9517;51.174;4.160;2023-04-21T04:38:01;8.90;99.90
18777;DHT22;9517;51.174;4.160;2023-04-21T04:40:28;8.60;99.90
18777;DHT22;9517;51.174;4.160;2023-04-21T04:42:57;8.50;99.90
18777;DHT22;9517;51.174;4.160;2023-04-21T04:45:26;8.40;99.90
18777;DHT22;9517;51.174;4.160;2023-04-21T04:47:54;8.30;99.90
18777;DHT22;9517;51.174;4.160;2023-04-21T04:50:22;8.10;99.90
18777;DHT22;9517;51.174;4.160;2023-04-21T04:52:49;8.20;99.90
18777;DHT22;9517;51.174;4.160;2023-04-21T04:55:17;8.20;99.90
18777;DHT22;9517;51.174;4.160;2023-04-21T04:57:44;8.00;99.90
18777;DHT22;9517;51.174;4.160;2023-04-21T05:00:12;7.90;99.90
18777;DHT22;9517;51.174;4.160;2023-04-21T05:02:39;7.90;99.90
18777;DHT22;9517;51.174;4.160;2023-04-21T05:05:07;7.80;99.90
18777;DHT22;9517;51.174;4.160;2023-04-21T05:07:35;7.70;99.90
18777;DHT22;9517;51.174;4.160;2023-04-21T05:10:03;7.80;99.90
18777;DHT22;9517;51.174;4.160;2023-04-21T05:12:30;7.90;99.90
18777;DHT22;9517;51.174;4.160;2023-04-21T05:14:57;8.10;99.90
18777;DHT22;9517;51.174;4.160;2023-04-21T05:17:25;8.20;99.90
18777;DHT22;9517;51.174;4.160;2023-04-21T05:19:53;8.30;99.90
18777;DHT22;9517;51.174;4.160;2023-04-21T05:22:20;8.20;99.90
18777;DHT22;9517;51.174;4.160;2023-04-21T05:24:48;8.30;99.90
18777;DHT22;9517;51.174;4.160;2023-04-21T05:27:15;8.40;99.90
18777;DHT22;9517;51.174;4.160;2023-04-21T05:29:42;8.50;99.90
18777;DHT22;9517;51.174;4.160;2023-04-21T05:32:09;8.40;99.90
18777;DHT22;9517;51.174;4.160;2023-04-21T05:34:37;8.60;99.90
18777;DHT22;9517;51.174;4.160;2023-04-21T05:37:04;8.60;99.90
18777;DHT22;9517;51.174;4.160;2023-04-21T05:39:31;8.60;99.90
18777;DHT22;9517;51.174;4.160;2023-04-21T05:41:59;8.80;99.90
18777;DHT22;9517;51.174;4.160;2023-04-21T05:44:27;8.70;99.90
18777;DHT22;9517;51.174;4.160;2023-04-21T05:46:54;8.80;99.90
18777;DHT22;9517;51.174;4.160;2023-04-21T05:49:21;8.70;99.90
18777;DHT22;9517;51.174;4.160;2023-04-21T05:51:48;8.90;99.90
18777;DHT22;9517;51.174;4.160;2023-04-21T05:54:15;9.00;99.90
18777;DHT22;9517;51.174;4.160;2023-04-21T05:56:42;8.90;99.90
18777;DHT22;9517;51.174;4.160;2023-04-21T05:59:10;9.00;99.90
18777;DHT22;9517;51.174;4.160;2023-04-21T06:01:37;9.10;99.90
18777;DHT22;9517;51.174;4.160;2023-04-21T06:04:04;9.30;99.90
18777;DHT22;9517;51.174;4.160;2023-04-21T06:06:31;9.40;99.90
18777;DHT22;9517;51.174;4.160;2023-04-21T06:08:59;9.30;99.90
18777;DHT22;9517;51.174;4.160;2023-04-21T06:11:26;9.30;99.90
18777;DHT22;9517;51.174;4.160;2023-04-21T06:13:53;9.40;99.90
18777;DHT22;9517;51.174;4.160;2023-04-21T06:16:24;9.40;99.90
18777;DHT22;9517;51.174;4.160;2023-04-21T06:18:51;9.10;99.90
18777;DHT22;9517;51.174;4.160;2023-04-21T06:21:18;9.10;99.90
18777;DHT22;9517;51.174;4.160;2023-04-21T06:23:45;9.10;99.90
18777;DHT22;9517;51.174;4.160;2023-04-21T06:26:12;9.20;99.90
18777;DHT22;9517;51.174;4.160;2023-04-21T06:28:40;9.10;99.90
18777;DHT22;9517;51.174;4.160;2023-04-21T06:31:07;9.20;99.90
18777;DHT22;9517;51.174;4.160;2023-04-21T06:33:41;9.40;99.90
18777;DHT22;9517;51.174;4.160;2023-04-21T06:36:08;9.40;99.90
18777;DHT22;9517;51.174;4.160;2023-04-21T06:38:35;9.50;99.90
18777;DHT22;9517;51.174;4.160;2023-04-21T06:41:04;9.50;99.90
18777;DHT22;9517;51.174;4.160;2023-04-21T06:43:31;9.60;99.90
18777;DHT22;9517;51.174;4.160;2023-04-21T06:45:59;9.60;99.90
18777;DHT22;9517;51.174;4.160;2023-04-21T06:48:26;9.70;99.90
18777;DHT22;9517;51.174;4.160;2023-04-21T06:50:56;9.70;99.90
18777;DHT22;9517;51.174;4.160;2023-04-21T06:53:23;9.90;99.90
18777;DHT22;9517;51.174;4.160;2023-04-21T06:55:50;9.80;99.90
18777;DHT22;9517;51.174;4.160;2023-04-21T06:58:18;9.80;99.90
18777;DHT22;9517;51.174;4.160;2023-04-21T07:00:45;9.80;99.90
18777;DHT22;9517;51.174;4.160;2023-04-21T07:03:12;9.80;99.90
18777;DHT22;9517;51.174;4.160;2023-04-21T07:05:40;10.00;99.90
18777;DHT22;9517;51.174;4.160;2023-04-21T07:08:08;10.20;99.90
18777;DHT22;9517;51.174;4.160;2023-04-21T07:10:35;10.20;99.90
18777;DHT22;9517;51.174;4.160;2023-04-21T07:13:02;10.10;99.90
18777;DHT22;9517;51.174;4.160;2023-04-21T07:15:29;10.20;99.90
18777;DHT22;9517;51.174;4.160;2023-04-21T07:17:56;10.30;99.90
18777;DHT22;9517;51.174;4.160;2023-04-21T07:20:24;10.40;99.90
18777;DHT22;9517;51.174;4.160;2023-04-21T07:22:51;10.50;99.90
18777;DHT22;9517;51.174;4.160;2023-04-21T07:25:20;10.70;99.90
18777;DHT22;9517;51.174;4.160;2023-04-21T07:27:47;10.80;99.90
18777;DHT22;9517;51.174;4.160;2023-04-21T07:30:14;11.10;99.90
18777;DHT22;9517;51.174;4.160;2023-04-21T07:32:41;11.30;99.90
18777;DHT22;9517;51.174;4.160;2023-04-21T07:35:08;11.10;99.90
18777;DHT22;9517;51.174;4.160;2023-04-21T07:37:35;11.20;99.90
18777;DHT22;9517;51.174;4.160;2023-04-21T07:40:05;11.30;99.90
18777;DHT22;9517;51.174;4.160;2023-04-21T07:42:34;11.30;99.90
18777;DHT22;9517;51.174;4.160;2023-04-21T07:45:01;11.40;99.90
18777;DHT22;9517;51.174;4.160;2023-04-21T07:47:28;11.50;99.90
18777;DHT22;9517;51.174;4.160;2023-04-21T07:49:56;11.60;99.90
18777;DHT22;9517;51.174;4.160;2023-04-21T07:52:23;11.80;99.90
18777;DHT22;9517;51.174;4.160;2023-04-21T07:54:50;12.10;99.90
18777;DHT22;9517;51.174;4.160;2023-04-21T07:57:17;12.50;99.90
18777;DHT22;9517;51.174;4.160;2023-04-21T07:59:45;12.40;99.90
18777;DHT22;9517;51.174;4.160;2023-04-21T08:02:13;12.40;99.90
18777;DHT22;9517;51.174;4.160;2023-04-21T08:04:40;12.50;99.90
18777;DHT22;9517;51.174;4.160;2023-04-21T08:07:07;12.60;99.90
18777;DHT22;9517;51.174;4.160;2023-04-21T08:09:35;12.50;99.90
18777;DHT22;9517;51.174;4.160;2023-04-21T08:12:05;12.60;99.90
18777;DHT22;9517;51.174;4.160;2023-04-21T08:14:32;12.60;99.90
18777;DHT22;9517;51.174;4.160;2023-04-21T08:17:00;12.80;99.90
18777;DHT22;9517;51.174;4.160;2023-04-21T08:19:27;12.90;99.90
18777;DHT22;9517;51.174;4.160;2023-04-21T08:21:55;13.00;99.90
18777;DHT22;9517;51.174;4.160;2023-04-21T08:24:23;12.80;99.90
18777;DHT22;9517;51.174;4.160;2023-04-21T08:26:50;12.90;99.90
18777;DHT22;9517;51.174;4.160;2023-04-21T08:29:17;13.00;99.90
18777;DHT22;9517;51.174;4.160;2023-04-21T08:31:44;13.00;99.90
18777;DHT22;9517;51.174;4.160;2023-04-21T08:34:13;13.20;99.90
18777;DHT22;9517;51.174;4.160;2023-04-21T08:36:40;13.40;99.90
18777;DHT22;9517;51.174;4.160;2023-04-21T08:39:07;13.50;99.90
18777;DHT22;9517;51.174;4.160;2023-04-21T08:41:37;13.40;99.90
18777;DHT22;9517;51.174;4.160;2023-04-21T08:44:05;13.60;99.90
18777;DHT22;9517;51.174;4.160;2023-04-21T08:46:33;13.50;99.90
18777;DHT22;9517;51.174;4.160;2023-04-21T08:49:01;13.50;99.90
18777;DHT22;9517;51.174;4.160;2023-04-21T08:51:30;13.70;99.90
18777;DHT22;9517;51.174;4.160;2023-04-21T08:53:58;14.10;99.90
18777;DHT22;9517;51.174;4.160;2023-04-21T08:56:25;14.30;99.90
18777;DHT22;9517;51.174;4.160;2023-04-21T08:58:52;14.30;99.90
18777;DHT22;9517;51.174;4.160;2023-04-21T09:01:20;14.20;99.90
18777;DHT22;9517;51.174;4.160;2023-04-21T09:03:47;14.10;99.90
18777;DHT22;9517;51.174;4.160;2023-04-21T09:06:14;14.00;99.90
18777;DHT22;9517;51.174;4.160;2023-04-21T09:08:45;14.20;99.90
18777;DHT22;9517;51.174;4.160;2023-04-21T09:11:18;14.40;99.90
18777;DHT22;9517;51.174;4.160;2023-04-21T09:13:45;14.60;99.90
18777;DHT22;9517;51.174;4.160;2023-04-21T09:16:17;14.70;99.90
18777;DHT22;9517;51.174;4.160;2023-04-21T09:18:44;14.70;99.90
18777;DHT22;9517;51.174;4.160;2023-04-21T09:21:13;14.90;99.90
18777;DHT22;9517;51.174;4.160;2023-04-21T09:23:43;15.10;99.90
18777;DHT22;9517;51.174;4.160;2023-04-21T09:26:11;15.30;99.90
18777;DHT22;9517;51.174;4.160;2023-04-21T09:28:41;15.40;99.90
18777;DHT22;9517;51.174;4.160;2023-04-21T09:31:13;15.90;99.90
18777;DHT22;9517;51.174;4.160;2023-04-21T09:33:46;16.30;99.90
18777;DHT22;9517;51.174;4.160;2023-04-21T09:36:24;16.20;99.90
18777;DHT22;9517;51.174;4.160;2023-04-21T09:38:57;16.40;99.90
18777;DHT22;9517;51.174;4.160;2023-04-21T09:41:24;16.40;99.90
18777;DHT22;9517;51.174;4.160;2023-04-21T09:43:51;16.60;99.90
18777;DHT22;9517;51.174;4.160;2023-04-21T09:46:19;17.20;99.90
18777;DHT22;9517;51.174;4.160;2023-04-21T09:48:47;17.20;99.90
18777;DHT22;9517;51.174;4.160;2023-04-21T09:51:15;17.20;99.90
18777;DHT22;9517;51.174;4.160;2023-04-21T09:53:44;17.30;99.90
18777;DHT22;9517;51.174;4.160;2023-04-21T09:56:13;17.60;99.90
18777;DHT22;9517;51.174;4.160;2023-04-21T09:58:45;18.00;99.90
18777;DHT22;9517;51.174;4.160;2023-04-21T10:01:13;17.70;99.90
18777;DHT22;9517;51.174;4.160;2023-04-21T10:03:41;18.00;99.90
18777;DHT22;9517;51.174;4.160;2023-04-21T10:06:10;18.00;99.90
18777;DHT22;9517;51.174;4.160;2023-04-21T10:08:38;18.70;99.90
18777;DHT22;9517;51.174;4.160;2023-04-21T10:11:06;18.80;99.90
18777;DHT22;9517;51.174;4.160;2023-04-21T10:13:35;19.10;99.90
18777;DHT22;9517;51.174;4.160;2023-04-21T10:16:03;18.90;99.90
18777;DHT22;9517;51.174;4.160;2023-04-21T10:18:34;18.70;99.90
18777;DHT22;9517;51.174;4.160;2023-04-21T10:21:04;18.80;99.90
18777;DHT22;9517;51.174;4.160;2023-04-21T10:23:35;19.10;99.90
18777;DHT22;9517;51.174;4.160;2023-04-21T10:26:09;19.50;99.90
18777;DHT22;9517;51.174;4.160;2023-04-21T10:28:47;19.80;99.90
18777;DHT22;9517;51.174;4.160;2023-04-21T10:31:20;20.20;99.90
18777;DHT22;9517;51.174;4.160;2023-04-21T10:34:13;20.40;99.90
18777;DHT22;9517;51.174;4.160;2023-04-21T10:37:10;20.50;99.90
18777;DHT22;9517;51.174;4.160;2023-04-21T10:39:51;21.10;99.90
18777;DHT22;9517;51.174;4.160;2023-04-21T10:42:21;21.10;99.90
18777;DHT22;9517;51.174;4.160;2023-04-21T10:45:06;21.10;99.90
18777;DHT22;9517;51.174;4.160;2023-04-21T10:47:39;20.70;99.90
18777;DHT22;9517;51.174;4.160;2023-04-21T10:50:13;20.90;99.90
18777;DHT22;9517;51.174;4.160;2023-04-21T10:52:44;20.90;99.90
18777;DHT22;9517;51.174;4.160;2023-04-21T10:55:12;21.50;99.90
18777;DHT22;9517;51.174;4.160;2023-04-21T10:57:42;21.60;99.90
18777;DHT22;9517;51.174;4.160;2023-04-21T11:00:15;21.70;99.90
18777;DHT22;9517;51.174;4.160;2023-04-21T11:02:43;22.20;99.90
18777;DHT22;9517;51.174;4.160;2023-04-21T11:05:10;22.80;99.90
18777;DHT22;9517;51.174;4.160;2023-04-21T11:07:38;23.40;99.90
18777;DHT22;9517;51.174;4.160;2023-04-21T11:10:07;23.90;99.90
18777;DHT22;9517;51.174;4.160;2023-04-21T11:12:37;24.00;99.90
18777;DHT22;9517;51.174;4.160;2023-04-21T11:15:06;24.60;99.90
18777;DHT22;9517;51.174;4.160;2023-04-21T11:17:35;25.40;99.90
18777;DHT22;9517;51.174;4.160;2023-04-21T11:20:05;25.40;99.90
18777;DHT22;9517;51.174;4.160;2023-04-21T11:22:33;25.00;99.50
18777;DHT22;9517;51.174;4.160;2023-04-21T11:25:02;24.60;99.90
18777;DHT22;9517;51.174;4.160;2023-04-21T11:27:29;25.20;99.90
18777;DHT22;9517;51.174;4.160;2023-04-21T11:29:56;25.00;99.10
18777;DHT22;9517;51.174;4.160;2023-04-21T11:32:23;25.60;95.80
18777;DHT22;9517;51.174;4.160;2023-04-21T11:34:53;25.70;96.80
18777;DHT22;9517;51.174;4.160;2023-04-21T11:37:23;25.90;96.60
18777;DHT22;9517;51.174;4.160;2023-04-21T11:39:56;26.00;96.10
18777;DHT22;9517;51.174;4.160;2023-04-21T11:42:24;25.60;95.70
18777;DHT22;9517;51.174;4.160;2023-04-21T11:44:53;25.40;96.80
18777;DHT22;9517;51.174;4.160;2023-04-21T11:47:22;25.50;94.70
18777;DHT22;9517;51.174;4.160;2023-04-21T11:49:52;25.70;95.80
18777;DHT22;9517;51.174;4.160;2023-04-21T11:52:24;26.60;96.30
18777;DHT22;9517;51.174;4.160;2023-04-21T11:54:57;26.70;94.30
18777;DHT22;9517;51.174;4.160;2023-04-21T11:57:25;26.80;92.00
18777;DHT22;9517;51.174;4.160;2023-04-21T11:59:53;26.60;91.40
18777;DHT22;9517;51.174;4.160;2023-04-21T12:02:23;26.30;92.80
18777;DHT22;9517;51.174;4.160;2023-04-21T12:04:59;26.30;91.10
18777;DHT22;9517;51.174;4.160;2023-04-21T12:07:28;26.40;93.90
18777;DHT22;9517;51.174;4.160;2023-04-21T12:09:55;26.50;91.30
18777;DHT22;9517;51.174;4.160;2023-04-21T12:12:23;26.60;95.40
18777;DHT22;9517;51.174;4.160;2023-04-21T12:14:51;27.70;94.70
18777;DHT22;9517;51.174;4.160;2023-04-21T12:17:18;28.30;92.80
18777;DHT22;9517;51.174;4.160;2023-04-21T12:19:46;28.40;93.50
18777;DHT22;9517;51.174;4.160;2023-04-21T12:22:16;29.10;91.80
18777;DHT22;9517;51.174;4.160;2023-04-21T12:24:44;28.70;90.30
18777;DHT22;9517;51.174;4.160;2023-04-21T12:27:13;28.80;91.20
18777;DHT22;9517;51.174;4.160;2023-04-21T12:29:40;29.50;87.60
18777;DHT22;9517;51.174;4.160;2023-04-21T12:32:08;29.40;87.70
18777;DHT22;9517;51.174;4.160;2023-04-21T12:34:35;28.80;88.40
18777;DHT22;9517;51.174;4.160;2023-04-21T12:37:03;28.10;85.40
18777;DHT22;9517;51.174;4.160;2023-04-21T12:39:33;27.60;89.60
18777;DHT22;9517;51.174;4.160;2023-04-21T12:42:00;26.90;87.90
18777;DHT22;9517;51.174;4.160;2023-04-21T12:44:27;26.70;90.60
18777;DHT22;9517;51.174;4.160;2023-04-21T12:46:54;26.90;89.70
18777;DHT22;9517;51.174;4.160;2023-04-21T12:49:22;27.10;87.10
18777;DHT22;9517;51.174;4.160;2023-04-21T12:51:49;27.30;88.30
18777;DHT22;9517;51.174;4.160;2023-04-21T12:54:17;26.80;86.10
18777;DHT22;9517;51.174;4.160;2023-04-21T12:56:45;26.40;88.50
18777;DHT22;9517;51.174;4.160;2023-04-21T12:59:12;26.40;87.80
18777;DHT22;9517;51.174;4.160;2023-04-21T13:01:40;26.40;90.00
18777;DHT22;9517;51.174;4.160;2023-04-21T13:04:08;25.60;89.50
18777;DHT22;9517;51.174;4.160;2023-04-21T13:06:37;25.10;90.90
18777;DHT22;9517;51.174;4.160;2023-04-21T13:09:04;25.10;90.70
18777;DHT22;9517;51.174;4.160;2023-04-21T13:11:32;25.80;91.00
18777;DHT22;9517;51.174;4.160;2023-04-21T13:14:01;26.20;90.30
18777;DHT22;9517;51.174;4.160;2023-04-21T13:16:29;27.10;90.00
18777;DHT22;9517;51.174;4.160;2023-04-21T13:18:56;27.80;90.00
18777;DHT22;9517;51.174;4.160;2023-04-21T13:21:23;28.70;87.20
18777;DHT22;9517;51.174;4.160;2023-04-21T13:23:50;28.80;85.00
18777;DHT22;9517;51.174;4.160;2023-04-21T13:26:18;29.10;87.70
18777;DHT22;9517;51.174;4.160;2023-04-21T13:28:45;29.40;84.40
18777;DHT22;9517;51.174;4.160;2023-04-21T13:31:13;29.70;79.60
18777;DHT22;9517;51.174;4.160;2023-04-21T13:33:40;29.30;79.10
18777;DHT22;9517;51.174;4.160;2023-04-21T13:36:07;30.00;79.30
18777;DHT22;9517;51.174;4.160;2023-04-21T13:38:35;29.30;78.40
18777;DHT22;9517;51.174;4.160;2023-04-21T13:41:02;28.60;81.20
18777;DHT22;9517;51.174;4.160;2023-04-21T13:43:32;28.40;78.70
18777;DHT22;9517;51.174;4.160;2023-04-21T13:45:59;27.30;76.80
18777;DHT22;9517;51.174;4.160;2023-04-21T13:48:28;27.10;81.90
18777;DHT22;9517;51.174;4.160;2023-04-21T13:50:55;26.10;82.00
18777;DHT22;9517;51.174;4.160;2023-04-21T13:53:22;25.50;83.20
18777;DHT22;9517;51.174;4.160;2023-04-21T13:55:50;25.10;88.50
18777;DHT22;9517;51.174;4.160;2023-04-21T13:58:17;24.80;84.70
18777;DHT22;9517;51.174;4.160;2023-04-21T14:00:44;24.30;89.10
18777;DHT22;9517;51.174;4.160;2023-04-21T14:03:11;23.80;84.60
18777;DHT22;9517;51.174;4.160;2023-04-21T14:05:40;23.60;85.20
18777;DHT22;9517;51.174;4.160;2023-04-21T14:08:07;23.30;88.50
18777;DHT22;9517;51.174;4.160;2023-04-21T14:10:34;23.00;89.50
18777;DHT22;9517;51.174;4.160;2023-04-21T14:13:01;22.70;90.80
18777;DHT22;9517;51.174;4.160;2023-04-21T14:15:28;22.90;90.30
18777;DHT22;9517;51.174;4.160;2023-04-21T14:17:56;23.10;88.20
18777;DHT22;9517;51.174;4.160;2023-04-21T14:20:23;22.70;90.00
18777;DHT22;9517;51.174;4.160;2023-04-21T14:22:51;22.80;90.40
18777;DHT22;9517;51.174;4.160;2023-04-21T14:25:18;22.30;89.40
18777;DHT22;9517;51.174;4.160;2023-04-21T14:27:45;22.40;92.70
18777;DHT22;9517;51.174;4.160;2023-04-21T14:30:13;22.60;90.60
18777;DHT22;9517;51.174;4.160;2023-04-21T14:32:40;23.10;89.20
18777;DHT22;9517;51.174;4.160;2023-04-21T14:35:10;22.80;90.50
18777;DHT22;9517;51.174;4.160;2023-04-21T14:37:37;22.80;91.60
18777;DHT22;9517;51.174;4.160;2023-04-21T14:40:07;22.30;91.20
18777;DHT22;9517;51.174;4.160;2023-04-21T14:42:35;22.30;90.50
18777;DHT22;9517;51.174;4.160;2023-04-21T14:45:03;22.60;90.20
18777;DHT22;9517;51.174;4.160;2023-04-21T14:47:30;22.40;90.60
18777;DHT22;9517;51.174;4.160;2023-04-21T14:49:57;22.60;91.50
18777;DHT22;9517;51.174;4.160;2023-04-21T14:52:27;22.60;89.10
18777;DHT22;9517;51.174;4.160;2023-04-21T14:54:55;22.50;90.40
18777;DHT22;9517;51.174;4.160;2023-04-21T14:57:24;22.90;91.60
18777;DHT22;9517;51.174;4.160;2023-04-21T14:59:52;23.00;91.00
18777;DHT22;9517;51.174;4.160;2023-04-21T15:02:19;23.20;87.60
18777;DHT22;9517;51.174;4.160;2023-04-21T15:04:47;23.90;87.70
18777;DHT22;9517;51.174;4.160;2023-04-21T15:07:14;24.80;89.70
18777;DHT22;9517;51.174;4.160;2023-04-21T15:09:41;25.20;84.90
18777;DHT22;9517;51.174;4.160;2023-04-21T15:12:10;26.00;84.80
18777;DHT22;9517;51.174;4.160;2023-04-21T15:14:39;26.50;83.60
18777;DHT22;9517;51.174;4.160;2023-04-21T15:17:07;27.20;85.30
18777;DHT22;9517;51.174;4.160;2023-04-21T15:19:34;28.00;83.50
18777;DHT22;9517;51.174;4.160;2023-04-21T15:22:01;28.50;78.40
18777;DHT22;9517;51.174;4.160;2023-04-21T15:24:30;27.90;79.30
18777;DHT22;9517;51.174;4.160;2023-04-21T15:26:57;27.60;81.40
18777;DHT22;9517;51.174;4.160;2023-04-21T15:29:24;27.60;78.50
18777;DHT22;9517;51.174;4.160;2023-04-21T15:31:54;27.50;79.00
18777;DHT22;9517;51.174;4.160;2023-04-21T15:34:21;27.70;79.30
18777;DHT22;9517;51.174;4.160;2023-04-21T15:36:48;27.20;78.10
18777;DHT22;9517;51.174;4.160;2023-04-21T15:39:15;27.20;81.80
18777;DHT22;9517;51.174;4.160;2023-04-21T15:41:42;27.20;81.80
18777;DHT22;9517;51.174;4.160;2023-04-21T15:44:10;26.80;79.80
18777;DHT22;9517;51.174;4.160;2023-04-21T15:46:37;26.40;79.50
18777;DHT22;9517;51.174;4.160;2023-04-21T15:49:06;26.30;78.10
18777;DHT22;9517;51.174;4.160;2023-04-21T15:51:33;25.70;80.50
18777;DHT22;9517;51.174;4.160;2023-04-21T15:54:00;26.10;80.00
18777;DHT22;9517;51.174;4.160;2023-04-21T15:56:27;26.20;83.60
18777;DHT22;9517;51.174;4.160;2023-04-21T15:58:54;25.90;84.20